sensor_id;sensor_type;location;lat;lon;timestamp;P1;P2;P0
66395;PMS5003;72184;51.378;-1.342;2023-09-08T00:00:40;24;24;
66395;PMS5003;72184;51.378;-1.342;2023-09-08T00:03:07;26;25;
66395;PMS5003;72184;51.378;-1.342;2023-09-08T00:05:35;25;24;
66395;PMS5003;72184;51.378;-1.342;2023-09-08T00:08:03;22;22;
66395;PMS5003;72184;51.378;-1.342;2023-09-08T00:10:30;24;24;
66395;PMS5003;72184;51.378;-1.342;2023-09-08T00:12:58;24;21;
66395;PMS5003;72184;51.378;-1.342;2023-09-08T00:15:26;22;21;
66395;PMS5003;72184;51.378;-1.342;2023-09-08T00:17:54;20;20;
66395;PMS5003;72184;51.378;-1.342;2023-09-08T00:20:21;23;22;
66395;PMS5003;72184;51.378;-1.342;2023-09-08T00:22:49;22;20;
66395;PMS5003;72184;51.378;-1.342;2023-09-08T00:25:17;22;21;
66395;PMS5003;72184;51.378;-1.342;2023-09-08T00:27:45;21;20;
66395;PMS5003;72184;51.378;-1.342;2023-09-08T00:30:12;20;20;
66395;PMS5003;72184;51.378;-1.342;2023-09-08T00:32:40;22;21;
66395;PMS5003;72184;51.378;-1.342;2023-09-08T00:35:10;21;20;
66395;PMS5003;72184;51.378;-1.342;2023-09-08T00:37:39;22;20;
66395;PMS5003;72184;51.378;-1.342;2023-09-08T00:40:07;22;21;
66395;PMS5003;72184;51.378;-1.342;2023-09-08T00:42:35;21;19;
66395;PMS5003;72184;51.378;-1.342;2023-09-08T00:45:03;22;21;
66395;PMS5003;72184;51.378;-1.342;2023-09-08T00:47:31;21;20;
66395;PMS5003;72184;51.378;-1.342;2023-09-08T00:49:58;22;21;
66395;PMS5003;72184;51.378;-1.342;2023-09-08T00:52:26;21;21;
66395;PMS5003;72184;51.378;-1.342;2023-09-08T00:54:54;21;21;
66395;PMS5003;72184;51.378;-1.342;2023-09-08T00:57:21;24;21;
66395;PMS5003;72184;51.378;-1.342;2023-09-08T00:59:49;19;19;
66395;PMS5003;72184;51.378;-1.342;2023-09-08T01:02:17;21;21;
66395;PMS5003;72184;51.378;-1.342;2023-09-08T01:04:44;21;20;
66395;PMS5003;72184;51.378;-1.342;2023-09-08T01:07:12;20;18;
66395;PMS5003;72184;51.378;-1.342;2023-09-08T01:09:41;19;19;
66395;PMS5003;72184;51.378;-1.342;2023-09-08T01:12:09;20;19;
66395;PMS5003;72184;51.378;-1.342;2023-09-08T01:14:36;20;19;
66395;PMS5003;72184;51.378;-1.342;2023-09-08T01:17:04;19;19;
66395;PMS5003;72184;51.378;-1.342;2023-09-08T01:19:32;18;18;
66395;PMS5003;72184;51.378;-1.342;2023-09-08T01:23:10;18;17;
66395;PMS5003;72184;51.378;-1.342;2023-09-08T01:25:44;18;17;
66395;PMS5003;72184;51.378;-1.342;2023-09-08T01:28:16;18;18;
66395;PMS5003;72184;51.378;-1.342;2023-09-08T01:30:45;18;18;
66395;PMS5003;72184;51.378;-1.342;2023-09-08T01:33:14;17;17;
66395;PMS5003;72184;51.378;-1.342;2023-09-08T01:35:42;17;16;
66395;PMS5003;72184;51.378;-1.342;2023-09-08T01:38:10;16;13;
66395;PMS5003;72184;51.378;-1.342;2023-09-08T01:40:37;15;14;
66395;PMS5003;72184;51.378;-1.342;2023-09-08T01:43:05;17;16;
66395;PMS5003;72184;51.378;-1.342;2023-09-08T01:45:33;17;15;
66395;PMS5003;72184;51.378;-1.342;2023-09-08T01:48:00;15;14;
66395;PMS5003;72184;51.378;-1.342;2023-09-08T01:50:28;17;15;
66395;PMS5003;72184;51.378;-1.342;2023-09-08T01:52:56;17;15;
66395;PMS5003;72184;51.378;-1.342;2023-09-08T01:55:24;16;14;
66395;PMS5003;72184;51.378;-1.342;2023-09-08T01:57:51;16;14;
66395;PMS5003;72184;51.378;-1.342;2023-09-08T02:00:19;16;15;
66395;PMS5003;72184;51.378;-1.342;2023-09-08T02:02:48;14;12;
66395;PMS5003;72184;51.378;-1.342;2023-09-08T02:05:16;16;12;
66395;PMS5003;72184;51.378;-1.342;2023-09-08T02:07:44;17;15;
66395;PMS5003;72184;51.378;-1.342;2023-09-08T02:10:11;15;15;
66395;PMS5003;72184;51.378;-1.342;2023-09-08T02:12:39;14;14;
66395;PMS5003;72184;51.378;-1.342;2023-09-08T02:15:07;14;14;
66395;PMS5003;72184;51.378;-1.342;2023-09-08T02:17:36;17;14;
66395;PMS5003;72184;51.378;-1.342;2023-09-08T02:20:04;15;14;
66395;PMS5003;72184;51.378;-1.342;2023-09-08T02:22:32;16;13;
66395;PMS5003;72184;51.378;-1.342;2023-09-08T02:25:00;17;17;
66395;PMS5003;72184;51.378;-1.342;2023-09-08T02:27:28;15;15;
66395;PMS5003;72184;51.378;-1.342;2023-09-08T02:29:56;14;14;
66395;PMS5003;72184;51.378;-1.342;2023-09-08T02:32:23;15;13;
66395;PMS5003;72184;51.378;-1.342;2023-09-08T02:34:51;15;15;
66395;PMS5003;72184;51.378;-1.342;2023-09-08T02:37:19;15;13;
66395;PMS5003;72184;51.378;-1.342;2023-09-08T02:39:47;16;14;
66395;PMS5003;72184;51.378;-1.342;2023-09-08T02:42:15;17;16;
66395;PMS5003;72184;51.378;-1.342;2023-09-08T02:44:42;16;15;
66395;PMS5003;72184;51.378;-1.342;2023-09-08T02:47:10;17;16;
66395;PMS5003;72184;51.378;-1.342;2023-09-08T02:49:38;17;16;
66395;PMS5003;72184;51.378;-1.342;2023-09-08T02:52:06;17;15;
66395;PMS5003;72184;51.378;-1.342;2023-09-08T02:54:34;17;17;
66395;PMS5003;72184;51.378;-1.342;2023-09-08T02:57:02;17;17;
66395;PMS5003;72184;51.378;-1.342;2023-09-08T02:59:29;17;17;
66395;PMS5003;72184;51.378;-1.342;2023-09-08T03:01:57;16;16;
66395;PMS5003;72184;51.378;-1.342;2023-09-08T03:04:26;18;17;
66395;PMS5003;72184;51.378;-1.342;2023-09-08T03:06:54;18;17;
66395;PMS5003;72184;51.378;-1.342;2023-09-08T03:09:22;17;16;
66395;PMS5003;72184;51.378;-1.342;2023-09-08T03:11:50;17;14;
66395;PMS5003;72184;51.378;-1.342;2023-09-08T03:14:17;18;17;
66395;PMS5003;72184;51.378;-1.342;2023-09-08T03:16:45;20;18;
66395;PMS5003;72184;51.378;-1.342;2023-09-08T03:19:13;19;17;
66395;PMS5003;72184;51.378;-1.342;2023-09-08T03:21:41;18;17;
66395;PMS5003;72184;51.378;-1.342;2023-09-08T03:24:09;17;17;
66395;PMS5003;72184;51.378;-1.342;2023-09-08T03:26:37;18;17;
66395;PMS5003;72184;51.378;-1.342;2023-09-08T03:29:05;18;18;
66395;PMS5003;72184;51.378;-1.342;2023-09-08T03:31:32;18;16;
66395;PMS5003;72184;51.378;-1.342;2023-09-08T03:34:00;16;16;
66395;PMS5003;72184;51.378;-1.342;2023-09-08T03:36:28;18;18;
66395;PMS5003;72184;51.378;-1.342;2023-09-08T03:38:56;18;18;
66395;PMS5003;72184;51.378;-1.342;2023-09-08T03:41:24;19;19;
66395;PMS5003;72184;51.378;-1.342;2023-09-08T03:43:52;17;17;
66395;PMS5003;72184;51.378;-1.342;2023-09-08T03:46:20;16;15;
66395;PMS5003;72184;51.378;-1.342;2023-09-08T03:48:48;17;17;
66395;PMS5003;72184;51.378;-1.342;2023-09-08T03:51:15;17;17;
66395;PMS5003;72184;51.378;-1.342;2023-09-08T03:53:43;17;17;
66395;PMS5003;72184;51.378;-1.342;2023-09-08T03:56:11;18;17;
66395;PMS5003;72184;51.378;-1.342;2023-09-08T03:58:39;18;17;
66395;PMS5003;72184;51.378;-1.342;2023-09-08T04:01:07;18;16;
66395;PMS5003;72184;51.378;-1.342;2023-09-08T04:03:35;17;16;
66395;PMS5003;72184;51.378;-1.342;2023-09-08T04:06:03;17;14;
66395;PMS5003;72184;51.378;-1.342;2023-09-08T04:08:30;16;13;
66395;PMS5003;72184;51.378;-1.342;2023-09-08T04:10:58;13;11;
66395;PMS5003;72184;51.378;-1.342;2023-09-08T04:13:26;16;14;
66395;PMS5003;72184;51.378;-1.342;2023-09-08T04:15:54;16;15;
66395;PMS5003;72184;51.378;-1.342;2023-09-08T04:18:22;16;12;
66395;PMS5003;72184;51.378;-1.342;2023-09-08T04:20:49;12;11;
66395;PMS5003;72184;51.378;-1.342;2023-09-08T04:23:17;12;11;
66395;PMS5003;72184;51.378;-1.342;2023-09-08T04:25:45;13;10;
66395;PMS5003;72184;51.378;-1.342;2023-09-08T04:28:13;11;10;
66395;PMS5003;72184;51.378;-1.342;2023-09-08T04:30:40;11;10;
66395;PMS5003;72184;51.378;-1.342;2023-09-08T04:33:08;11;9;
66395;PMS5003;72184;51.378;-1.342;2023-09-08T04:35:36;9;8;
66395;PMS5003;72184;51.378;-1.342;2023-09-08T04:38:04;10;9;
66395;PMS5003;72184;51.378;-1.342;2023-09-08T04:40:32;8;8;
66395;PMS5003;72184;51.378;-1.342;2023-09-08T04:42:59;10;10;
66395;PMS5003;72184;51.378;-1.342;2023-09-08T04:45:26;9;9;
66395;PMS5003;72184;51.378;-1.342;2023-09-08T04:47:53;9;8;
66395;PMS5003;72184;51.378;-1.342;2023-09-08T04:50:21;11;10;
66395;PMS5003;72184;51.378;-1.342;2023-09-08T04:52:48;7;6;
66395;PMS5003;72184;51.378;-1.342;2023-09-08T04:55:14;7;7;
66395;PMS5003;72184;51.378;-1.342;2023-09-08T04:57:42;9;8;
66395;PMS5003;72184;51.378;-1.342;2023-09-08T05:00:10;9;9;
66395;PMS5003;72184;51.378;-1.342;2023-09-08T05:02:38;11;9;
66395;PMS5003;72184;51.378;-1.342;2023-09-08T05:05:07;8;7;
66395;PMS5003;72184;51.378;-1.342;2023-09-08T05:07:34;9;8;
66395;PMS5003;72184;51.378;-1.342;2023-09-08T05:10:02;10;9;
66395;PMS5003;72184;51.378;-1.342;2023-09-08T05:12:30;11;9;
66395;PMS5003;72184;51.378;-1.342;2023-09-08T05:14:57;8;8;
66395;PMS5003;72184;51.378;-1.342;2023-09-08T05:17:24;12;10;
66395;PMS5003;72184;51.378;-1.342;2023-09-08T05:19:52;10;9;
66395;PMS5003;72184;51.378;-1.342;2023-09-08T05:22:20;12;9;
66395;PMS5003;72184;51.378;-1.342;2023-09-08T05:24:47;8;8;
66395;PMS5003;72184;51.378;-1.342;2023-09-08T05:27:14;11;10;
66395;PMS5003;72184;51.378;-1.342;2023-09-08T05:29:42;12;10;
66395;PMS5003;72184;51.378;-1.342;2023-09-08T05:32:08;14;11;
66395;PMS5003;72184;51.378;-1.342;2023-09-08T05:34:35;18;17;
66395;PMS5003;72184;51.378;-1.342;2023-09-08T05:37:03;18;15;
66395;PMS5003;72184;51.378;-1.342;2023-09-08T05:39:30;17;17;
66395;PMS5003;72184;51.378;-1.342;2023-09-08T05:41:58;16;16;
66395;PMS5003;72184;51.378;-1.342;2023-09-08T05:44:25;17;16;
66395;PMS5003;72184;51.378;-1.342;2023-09-08T05:46:52;16;15;
66395;PMS5003;72184;51.378;-1.342;2023-09-08T05:49:20;19;18;
66395;PMS5003;72184;51.378;-1.342;2023-09-08T05:51:48;17;14;
66395;PMS5003;72184;51.378;-1.342;2023-09-08T05:54:15;16;14;
66395;PMS5003;72184;51.378;-1.342;2023-09-08T05:56:43;15;12;
66395;PMS5003;72184;51.378;-1.342;2023-09-08T05:59:10;13;13;
66395;PMS5003;72184;51.378;-1.342;2023-09-08T06:01:38;15;14;
66395;PMS5003;72184;51.378;-1.342;2023-09-08T06:04:06;15;14;
66395;PMS5003;72184;51.378;-1.342;2023-09-08T06:06:34;13;13;
66395;PMS5003;72184;51.378;-1.342;2023-09-08T06:09:02;16;15;
66395;PMS5003;72184;51.378;-1.342;2023-09-08T06:11:32;17;14;
66395;PMS5003;72184;51.378;-1.342;2023-09-08T06:14:00;18;15;
66395;PMS5003;72184;51.378;-1.342;2023-09-08T06:16:27;15;15;
66395;PMS5003;72184;51.378;-1.342;2023-09-08T06:18:54;16;16;
66395;PMS5003;72184;51.378;-1.342;2023-09-08T06:21:21;13;13;
66395;PMS5003;72184;51.378;-1.342;2023-09-08T06:23:49;16;14;
66395;PMS5003;72184;51.378;-1.342;2023-09-08T06:26:16;14;13;
66395;PMS5003;72184;51.378;-1.342;2023-09-08T06:28:43;16;14;
66395;PMS5003;72184;51.378;-1.342;2023-09-08T06:31:11;16;16;
66395;PMS5003;72184;51.378;-1.342;2023-09-08T06:33:39;19;19;
66395;PMS5003;72184;51.378;-1.342;2023-09-08T06:36:06;20;19;
66395;PMS5003;72184;51.378;-1.342;2023-09-08T06:38:33;19;19;
66395;PMS5003;72184;51.378;-1.342;2023-09-08T06:41:00;18;17;
66395;PMS5003;72184;51.378;-1.342;2023-09-08T06:43:28;19;16;
66395;PMS5003;72184;51.378;-1.342;2023-09-08T06:45:55;20;18;
66395;PMS5003;72184;51.378;-1.342;2023-09-08T06:48:22;19;18;
66395;PMS5003;72184;51.378;-1.342;2023-09-08T06:50:52;17;16;
66395;PMS5003;72184;51.378;-1.342;2023-09-08T06:53:20;18;17;
66395;PMS5003;72184;51.378;-1.342;2023-09-08T06:55:48;16;13;
66395;PMS5003;72184;51.378;-1.342;2023-09-08T06:58:16;18;17;
66395;PMS5003;72184;51.378;-1.342;2023-09-08T07:00:44;16;14;
66395;PMS5003;72184;51.378;-1.342;2023-09-08T07:03:12;18;17;
66395;PMS5003;72184;51.378;-1.342;2023-09-08T07:05:39;53;52;
66395;PMS5003;72184;51.378;-1.342;2023-09-08T07:08:07;49;46;
66395;PMS5003;72184;51.378;-1.342;2023-09-08T07:10:36;32;32;
66395;PMS5003;72184;51.378;-1.342;2023-09-08T07:13:03;26;25;
66395;PMS5003;72184;51.378;-1.342;2023-09-08T07:15:31;25;24;
66395;PMS5003;72184;51.378;-1.342;2023-09-08T07:17:59;24;23;
66395;PMS5003;72184;51.378;-1.342;2023-09-08T07:20:27;36;36;
66395;PMS5003;72184;51.378;-1.342;2023-09-08T07:22:55;49;45;
66395;PMS5003;72184;51.378;-1.342;2023-09-08T07:25:23;55;55;
66395;PMS5003;72184;51.378;-1.342;2023-09-08T07:27:50;53;51;
66395;PMS5003;72184;51.378;-1.342;2023-09-08T07:30:18;35;35;
66395;PMS5003;72184;51.378;-1.342;2023-09-08T07:32:46;30;29;
66395;PMS5003;72184;51.378;-1.342;2023-09-08T07:35:14;29;28;
66395;PMS5003;72184;51.378;-1.342;2023-09-08T07:37:42;30;30;
66395;PMS5003;72184;51.378;-1.342;2023-09-08T07:40:10;35;33;
66395;PMS5003;72184;51.378;-1.342;2023-09-08T07:42:39;36;36;
66395;PMS5003;72184;51.378;-1.342;2023-09-08T07:45:07;37;37;
66395;PMS5003;72184;51.378;-1.342;2023-09-08T07:47:34;35;34;
66395;PMS5003;72184;51.378;-1.342;2023-09-08T07:50:19;35;32;
66395;PMS5003;72184;51.378;-1.342;2023-09-08T07:52:47;33;33;
66395;PMS5003;72184;51.378;-1.342;2023-09-08T07:55:15;30;30;
66395;PMS5003;72184;51.378;-1.342;2023-09-08T07:57:43;37;36;
66395;PMS5003;72184;51.378;-1.342;2023-09-08T08:00:12;41;40;
66395;PMS5003;72184;51.378;-1.342;2023-09-08T08:02:41;39;39;
66395;PMS5003;72184;51.378;-1.342;2023-09-08T08:05:12;38;37;
66395;PMS5003;72184;51.378;-1.342;2023-09-08T08:07:39;39;38;
66395;PMS5003;72184;51.378;-1.342;2023-09-08T08:10:07;37;35;
66395;PMS5003;72184;51.378;-1.342;2023-09-08T08:12:36;33;33;
66395;PMS5003;72184;51.378;-1.342;2023-09-08T08:15:04;38;36;
66395;PMS5003;72184;51.378;-1.342;2023-09-08T08:17:32;35;35;
66395;PMS5003;72184;51.378;-1.342;2023-09-08T08:20:01;31;31;
66395;PMS5003;72184;51.378;-1.342;2023-09-08T08:22:29;32;31;
66395;PMS5003;72184;51.378;-1.342;2023-09-08T08:24:57;30;30;
66395;PMS5003;72184;51.378;-1.342;2023-09-08T08:27:24;28;27;
66395;PMS5003;72184;51.378;-1.342;2023-09-08T08:29:52;26;26;
66395;PMS5003;72184;51.378;-1.342;2023-09-08T08:32:20;25;25;
66395;PMS5003;72184;51.378;-1.342;2023-09-08T08:34:48;25;23;
66395;PMS5003;72184;51.378;-1.342;2023-09-08T08:37:15;24;24;
66395;PMS5003;72184;51.378;-1.342;2023-09-08T08:39:43;26;25;
66395;PMS5003;72184;51.378;-1.342;2023-09-08T08:42:11;25;24;
66395;PMS5003;72184;51.378;-1.342;2023-09-08T08:44:39;24;24;
66395;PMS5003;72184;51.378;-1.342;2023-09-08T08:47:07;23;21;
66395;PMS5003;72184;51.378;-1.342;2023-09-08T08:49:36;23;21;
66395;PMS5003;72184;51.378;-1.342;2023-09-08T08:52:05;22;21;
66395;PMS5003;72184;51.378;-1.342;2023-09-08T08:54:33;22;22;
66395;PMS5003;72184;51.378;-1.342;2023-09-08T08:57:04;19;19;
66395;PMS5003;72184;51.378;-1.342;2023-09-08T08:59:31;19;18;
66395;PMS5003;72184;51.378;-1.342;2023-09-08T09:01:59;15;14;
66395;PMS5003;72184;51.378;-1.342;2023-09-08T09:04:29;8;8;
66395;PMS5003;72184;51.378;-1.342;2023-09-08T09:06:56;10;9;
66395;PMS5003;72184;51.378;-1.342;2023-09-08T09:09:24;8;8;
66395;PMS5003;72184;51.378;-1.342;2023-09-08T09:11:52;7;7;
66395;PMS5003;72184;51.378;-1.342;2023-09-08T09:14:19;6;6;
66395;PMS5003;72184;51.378;-1.342;2023-09-08T09:16:47;6;6;
66395;PMS5003;72184;51.378;-1.342;2023-09-08T09:19:17;5;5;
66395;PMS5003;72184;51.378;-1.342;2023-09-08T09:21:46;5;4;
66395;PMS5003;72184;51.378;-1.342;2023-09-08T09:24:15;6;6;
66395;PMS5003;72184;51.378;-1.342;2023-09-08T09:26:43;7;6;
66395;PMS5003;72184;51.378;-1.342;2023-09-08T09:29:12;6;6;
66395;PMS5003;72184;51.378;-1.342;2023-09-08T09:31:50;5;4;
66395;PMS5003;72184;51.378;-1.342;2023-09-08T09:34:17;5;5;
66395;PMS5003;72184;51.378;-1.342;2023-09-08T09:36:45;3;2;
66395;PMS5003;72184;51.378;-1.342;2023-09-08T09:39:13;3;3;
66395;PMS5003;72184;51.378;-1.342;2023-09-08T09:41:44;2;2;
66395;PMS5003;72184;51.378;-1.342;2023-09-08T09:44:11;4;4;
66395;PMS5003;72184;51.378;-1.342;2023-09-08T09:46:38;3;3;
66395;PMS5003;72184;51.378;-1.342;2023-09-08T09:49:10;2;2;
66395;PMS5003;72184;51.378;-1.342;2023-09-08T09:51:39;7;5;
66395;PMS5003;72184;51.378;-1.342;2023-09-08T09:54:07;4;3;
66395;PMS5003;72184;51.378;-1.342;2023-09-08T09:56:36;3;3;
66395;PMS5003;72184;51.378;-1.342;2023-09-08T09:59:04;4;4;
66395;PMS5003;72184;51.378;-1.342;2023-09-08T10:01:36;3;3;
66395;PMS5003;72184;51.378;-1.342;2023-09-08T10:04:04;2;2;
66395;PMS5003;72184;51.378;-1.342;2023-09-08T10:06:33;3;3;
66395;PMS5003;72184;51.378;-1.342;2023-09-08T10:09:03;3;3;
66395;PMS5003;72184;51.378;-1.342;2023-09-08T10:11:33;4;3;
66395;PMS5003;72184;51.378;-1.342;2023-09-08T10:14:04;5;5;
66395;PMS5003;72184;51.378;-1.342;2023-09-08T10:16:34;2;2;
66395;PMS5003;72184;51.378;-1.342;2023-09-08T10:19:04;4;3;
66395;PMS5003;72184;51.378;-1.342;2023-09-08T10:21:36;4;3;
66395;PMS5003;72184;51.378;-1.342;2023-09-08T10:24:09;3;3;
66395;PMS5003;72184;51.378;-1.342;2023-09-08T10:26:44;4;3;
66395;PMS5003;72184;51.378;-1.342;2023-09-08T10:29:16;3;2;
66395;PMS5003;72184;51.378;-1.342;2023-09-08T10:31:45;4;4;
66395;PMS5003;72184;51.378;-1.342;2023-09-08T10:34:12;3;3;
66395;PMS5003;72184;51.378;-1.342;2023-09-08T10:36:41;4;3;
66395;PMS5003;72184;51.378;-1.342;2023-09-08T10:39:41;3;3;
66395;PMS5003;72184;51.378;-1.342;2023-09-08T10:42:24;3;2;
66395;PMS5003;72184;51.378;-1.342;2023-09-08T10:44:56;4;3;
66395;PMS5003;72184;51.378;-1.342;2023-09-08T10:47:30;4;3;
66395;PMS5003;72184;51.378;-1.342;2023-09-08T10:49:58;3;2;
66395;PMS5003;72184;51.378;-1.342;2023-09-08T10:52:26;4;3;
66395;PMS5003;72184;51.378;-1.342;2023-09-08T10:54:54;2;2;
66395;PMS5003;72184;51.378;-1.342;2023-09-08T10:57:22;3;3;
66395;PMS5003;72184;51.378;-1.342;2023-09-08T10:59:52;2;2;
66395;PMS5003;72184;51.378;-1.342;2023-09-08T11:02:32;4;3;
66395;PMS5003;72184;51.378;-1.342;2023-09-08T11:05:01;3;2;
66395;PMS5003;72184;51.378;-1.342;2023-09-08T11:07:28;3;3;
66395;PMS5003;72184;51.378;-1.342;2023-09-08T11:09:56;3;3;
66395;PMS5003;72184;51.378;-1.342;2023-09-08T11:12:25;3;3;
66395;PMS5003;72184;51.378;-1.342;2023-09-08T11:14:54;3;3;
66395;PMS5003;72184;51.378;-1.342;2023-09-08T11:17:24;2;2;
66395;PMS5003;72184;51.378;-1.342;2023-09-08T11:19:52;3;2;
66395;PMS5003;72184;51.378;-1.342;2023-09-08T11:22:21;2;2;
66395;PMS5003;72184;51.378;-1.342;2023-09-08T11:24:50;5;4;
66395;PMS5003;72184;51.378;-1.342;2023-09-08T11:27:18;3;3;
66395;PMS5003;72184;51.378;-1.342;2023-09-08T11:29:47;4;4;
66395;PMS5003;72184;51.378;-1.342;2023-09-08T11:32:14;4;3;
66395;PMS5003;72184;51.378;-1.342;2023-09-08T11:34:41;4;4;
66395;PMS5003;72184;51.378;-1.342;2023-09-08T11:37:09;4;3;
66395;PMS5003;72184;51.378;-1.342;2023-09-08T11:39:37;4;3;
66395;PMS5003;72184;51.378;-1.342;2023-09-08T11:42:05;4;4;
66395;PMS5003;72184;51.378;-1.342;2023-09-08T11:44:33;3;3;
66395;PMS5003;72184;51.378;-1.342;2023-09-08T11:47:02;4;3;
66395;PMS5003;72184;51.378;-1.342;2023-09-08T11:49:34;3;3;
66395;PMS5003;72184;51.378;-1.342;2023-09-08T11:52:02;4;4;
66395;PMS5003;72184;51.378;-1.342;2023-09-08T11:54:29;5;4;
66395;PMS5003;72184;51.378;-1.342;2023-09-08T11:56:58;2;2;
66395;PMS5003;72184;51.378;-1.342;2023-09-08T11:59:27;5;4;
66395;PMS5003;72184;51.378;-1.342;2023-09-08T12:01:56;4;3;
66395;PMS5003;72184;51.378;-1.342;2023-09-08T12:04:24;4;4;
66395;PMS5003;72184;51.378;-1.342;2023-09-08T12:06:53;3;3;
66395;PMS5003;72184;51.378;-1.342;2023-09-08T12:09:21;4;4;
66395;PMS5003;72184;51.378;-1.342;2023-09-08T12:11:49;3;3;
66395;PMS5003;72184;51.378;-1.342;2023-09-08T12:14:16;5;4;
66395;PMS5003;72184;51.378;-1.342;2023-09-08T12:16:44;3;3;
66395;PMS5003;72184;51.378;-1.342;2023-09-08T12:19:28;5;5;
66395;PMS5003;72184;51.378;-1.342;2023-09-08T12:21:56;4;4;
66395;PMS5003;72184;51.378;-1.342;2023-09-08T12:24:57;3;3;
66395;PMS5003;72184;51.378;-1.342;2023-09-08T12:27:24;4;4;
66395;PMS5003;72184;51.378;-1.342;2023-09-08T12:29:53;4;4;
66395;PMS5003;72184;51.378;-1.342;2023-09-08T12:32:22;4;4;
66395;PMS5003;72184;51.378;-1.342;2023-09-08T12:34:50;5;5;
66395;PMS5003;72184;51.378;-1.342;2023-09-08T12:37:20;3;3;
66395;PMS5003;72184;51.378;-1.342;2023-09-08T12:39:48;4;4;
66395;PMS5003;72184;51.378;-1.342;2023-09-08T12:42:15;5;4;
66395;PMS5003;72184;51.378;-1.342;2023-09-08T12:44:45;4;3;
66395;PMS5003;72184;51.378;-1.342;2023-09-08T12:47:12;3;3;
66395;PMS5003;72184;51.378;-1.342;2023-09-08T12:49:39;5;5;
66395;PMS5003;72184;51.378;-1.342;2023-09-08T12:52:06;3;3;
66395;PMS5003;72184;51.378;-1.342;2023-09-08T12:54:33;4;3;
66395;PMS5003;72184;51.378;-1.342;2023-09-08T12:57:01;4;4;
66395;PMS5003;72184;51.378;-1.342;2023-09-08T12:59:29;4;4;
66395;PMS5003;72184;51.378;-1.342;2023-09-08T13:01:56;3;2;
66395;PMS5003;72184;51.378;-1.342;2023-09-08T13:04:23;5;4;
66395;PMS5003;72184;51.378;-1.342;2023-09-08T13:06:50;5;4;
66395;PMS5003;72184;51.378;-1.342;2023-09-08T13:09:17;4;4;
66395;PMS5003;72184;51.378;-1.342;2023-09-08T13:11:44;3;3;
66395;PMS5003;72184;51.378;-1.342;2023-09-08T13:14:11;4;4;
66395;PMS5003;72184;51.378;-1.342;2023-09-08T13:16:38;5;5;
66395;PMS5003;72184;51.378;-1.342;2023-09-08T13:19:06;5;4;
66395;PMS5003;72184;51.378;-1.342;2023-09-08T13:21:33;6;6;
66395;PMS5003;72184;51.378;-1.342;2023-09-08T13:24:00;4;4;
66395;PMS5003;72184;51.378;-1.342;2023-09-08T13:26:30;5;5;
66395;PMS5003;72184;51.378;-1.342;2023-09-08T13:28:58;6;6;
66395;PMS5003;72184;51.378;-1.342;2023-09-08T13:31:25;6;6;
66395;PMS5003;72184;51.378;-1.342;2023-09-08T13:33:52;6;6;
66395;PMS5003;72184;51.378;-1.342;2023-09-08T13:36:19;7;7;
66395;PMS5003;72184;51.378;-1.342;2023-09-08T13:38:46;5;5;
66395;PMS5003;72184;51.378;-1.342;2023-09-08T13:41:13;5;5;
66395;PMS5003;72184;51.378;-1.342;2023-09-08T13:43:40;7;7;
66395;PMS5003;72184;51.378;-1.342;2023-09-08T13:46:07;7;6;
66395;PMS5003;72184;51.378;-1.342;2023-09-08T13:48:34;6;6;
66395;PMS5003;72184;51.378;-1.342;2023-09-08T13:51:01;7;7;
66395;PMS5003;72184;51.378;-1.342;2023-09-08T13:53:29;9;8;
66395;PMS5003;72184;51.378;-1.342;2023-09-08T13:55:56;11;10;
66395;PMS5003;72184;51.378;-1.342;2023-09-08T13:58:24;9;8;
66395;PMS5003;72184;51.378;-1.342;2023-09-08T14:00:51;8;8;
66395;PMS5003;72184;51.378;-1.342;2023-09-08T14:03:18;8;8;
66395;PMS5003;72184;51.378;-1.342;2023-09-08T14:05:45;7;7;
66395;PMS5003;72184;51.378;-1.342;2023-09-08T14:08:11;8;8;
66395;PMS5003;72184;51.378;-1.342;2023-09-08T14:10:38;6;6;
66395;PMS5003;72184;51.378;-1.342;2023-09-08T14:13:05;6;6;
66395;PMS5003;72184;51.378;-1.342;2023-09-08T14:15:32;7;7;
66395;PMS5003;72184;51.378;-1.342;2023-09-08T14:17:59;8;8;
66395;PMS5003;72184;51.378;-1.342;2023-09-08T14:20:26;7;7;
66395;PMS5003;72184;51.378;-1.342;2023-09-08T14:22:53;10;8;
66395;PMS5003;72184;51.378;-1.342;2023-09-08T14:25:20;7;7;
66395;PMS5003;72184;51.378;-1.342;2023-09-08T14:27:47;8;8;
66395;PMS5003;72184;51.378;-1.342;2023-09-08T14:30:15;10;10;
66395;PMS5003;72184;51.378;-1.342;2023-09-08T14:32:41;9;9;
66395;PMS5003;72184;51.378;-1.342;2023-09-08T14:35:09;5;5;
66395;PMS5003;72184;51.378;-1.342;2023-09-08T14:37:36;7;6;
66395;PMS5003;72184;51.378;-1.342;2023-09-08T14:40:04;9;9;
66395;PMS5003;72184;51.378;-1.342;2023-09-08T14:42:32;8;8;
66395;PMS5003;72184;51.378;-1.342;2023-09-08T14:44:59;5;5;
66395;PMS5003;72184;51.378;-1.342;2023-09-08T14:47:26;6;6;
66395;PMS5003;72184;51.378;-1.342;2023-09-08T14:49:53;6;5;
66395;PMS5003;72184;51.378;-1.342;2023-09-08T14:52:20;8;7;
66395;PMS5003;72184;51.378;-1.342;2023-09-08T14:54:47;6;6;
66395;PMS5003;72184;51.378;-1.342;2023-09-08T14:57:15;5;5;
66395;PMS5003;72184;51.378;-1.342;2023-09-08T14:59:42;6;5;
66395;PMS5003;72184;51.378;-1.342;2023-09-08T15:02:09;8;7;
66395;PMS5003;72184;51.378;-1.342;2023-09-08T15:04:37;6;4;
66395;PMS5003;72184;51.378;-1.342;2023-09-08T15:07:04;7;6;
66395;PMS5003;72184;51.378;-1.342;2023-09-08T15:09:31;6;6;
66395;PMS5003;72184;51.378;-1.342;2023-09-08T15:11:58;7;6;
66395;PMS5003;72184;51.378;-1.342;2023-09-08T15:14:26;7;7;
66395;PMS5003;72184;51.378;-1.342;2023-09-08T15:16:53;4;4;
66395;PMS5003;72184;51.378;-1.342;2023-09-08T15:19:20;5;5;
66395;PMS5003;72184;51.378;-1.342;2023-09-08T15:21:47;7;5;
66395;PMS5003;72184;51.378;-1.342;2023-09-08T15:24:14;5;4;
66395;PMS5003;72184;51.378;-1.342;2023-09-08T15:26:42;5;5;
66395;PMS5003;72184;51.378;-1.342;2023-09-08T15:29:09;6;5;
66395;PMS5003;72184;51.378;-1.342;2023-09-08T15:31:36;5;5;
66395;PMS5003;72184;51.378;-1.342;2023-09-08T15:34:04;6;6;
66395;PMS5003;72184;51.378;-1.342;2023-09-08T15:36:30;5;5;
66395;PMS5003;72184;51.378;-1.342;2023-09-08T15:38:57;5;5;
66395;PMS5003;72184;51.378;-1.342;2023-09-08T15:41:24;6;6;
66395;PMS5003;72184;51.378;-1.342;2023-09-08T15:43:51;6;6;
66395;PMS5003;72184;51.378;-1.342;2023-09-08T15:46:18;6;6;
66395;PMS5003;72184;51.378;-1.342;2023-09-08T15:48:46;5;5;
66395;PMS5003;72184;51.378;-1.342;2023-09-08T15:51:14;8;8;
66395;PMS5003;72184;51.378;-1.342;2023-09-08T15:53:42;7;7;
66395;PMS5003;72184;51.378;-1.342;2023-09-08T15:56:09;4;4;
66395;PMS5003;72184;51.378;-1.342;2023-09-08T15:58:37;6;5;
66395;PMS5003;72184;51.378;-1.342;2023-09-08T16:01:04;8;7;
66395;PMS5003;72184;51.378;-1.342;2023-09-08T16:03:32;6;6;
66395;PMS5003;72184;51.378;-1.342;2023-09-08T16:05:59;6;6;
66395;PMS5003;72184;51.378;-1.342;2023-09-08T16:08:27;5;3;
66395;PMS5003;72184;51.378;-1.342;2023-09-08T16:10:53;5;4;
66395;PMS5003;72184;51.378;-1.342;2023-09-08T16:13:20;6;5;
66395;PMS5003;72184;51.378;-1.342;2023-09-08T16:15:47;5;5;
66395;PMS5003;72184;51.378;-1.342;2023-09-08T16:18:14;5;5;
66395;PMS5003;72184;51.378;-1.342;2023-09-08T16:20:41;4;4;
66395;PMS5003;72184;51.378;-1.342;2023-09-08T16:23:08;6;5;